sensor_id;sensor_type;location;lat;lon;timestamp;P1;durP1;ratioP1;P2;durP2;ratioP2
78346;SDS011;67622;41.330;69.282;2023-02-11T00:01:17;39.55;;;17.10;;
78346;SDS011;67622;41.330;69.282;2023-02-11T00:03:48;37.78;;;17.85;;
78346;SDS011;67622;41.330;69.282;2023-02-11T00:06:19;40.58;;;17.90;;
78346;SDS011;67622;41.330;69.282;2023-02-11T00:08:50;38.55;;;17.73;;
78346;SDS011;67622;41.330;69.282;2023-02-11T00:11:20;37.05;;;16.48;;
78346;SDS011;67622;41.330;69.282;2023-02-11T00:13:51;40.92;;;17.20;;
78346;SDS011;67622;41.330;69.282;2023-02-11T00:16:22;41.63;;;18.02;;
78346;SDS011;67622;41.330;69.282;2023-02-11T00:18:53;37.35;;;16.85;;
78346;SDS011;67622;41.330;69.282;2023-02-11T00:21:24;40.72;;;18.17;;
78346;SDS011;67622;41.330;69.282;2023-02-11T00:23:55;41.25;;;18.13;;
78346;SDS011;67622;41.330;69.282;2023-02-11T00:26:30;36.13;;;16.60;;
78346;SDS011;67622;41.330;69.282;2023-02-11T00:29:01;41.42;;;18.92;;
78346;SDS011;67622;41.330;69.282;2023-02-11T00:31:32;40.92;;;16.88;;
78346;SDS011;67622;41.330;69.282;2023-02-11T00:34:02;39.92;;;18.17;;
78346;SDS011;67622;41.330;69.282;2023-02-11T00:36:33;41.10;;;18.45;;
78346;SDS011;67622;41.330;69.282;2023-02-11T00:39:04;38.70;;;17.88;;
78346;SDS011;67622;41.330;69.282;2023-02-11T00:41:34;38.33;;;17.75;;
78346;SDS011;67622;41.330;69.282;2023-02-11T00:44:05;39.67;;;17.38;;
78346;SDS011;67622;41.330;69.282;2023-02-11T00:46:35;41.95;;;18.75;;
78346;SDS011;67622;41.330;69.282;2023-02-11T00:49:06;36.10;;;17.92;;
78346;SDS011;67622;41.330;69.282;2023-02-11T00:51:36;41.95;;;17.45;;
78346;SDS011;67622;41.330;69.282;2023-02-11T00:54:07;37.03;;;17.02;;
78346;SDS011;67622;41.330;69.282;2023-02-11T00:56:37;31.38;;;15.80;;
78346;SDS011;67622;41.330;69.282;2023-02-11T00:59:08;37.53;;;16.27;;
78346;SDS011;67622;41.330;69.282;2023-02-11T01:01:38;37.60;;;17.58;;
78346;SDS011;67622;41.330;69.282;2023-02-11T01:04:09;30.85;;;15.82;;
78346;SDS011;67622;41.330;69.282;2023-02-11T01:06:39;38.03;;;18.17;;
78346;SDS011;67622;41.330;69.282;2023-02-11T01:09:09;39.60;;;17.38;;
78346;SDS011;67622;41.330;69.282;2023-02-11T01:11:40;33.67;;;16.70;;
78346;SDS011;67622;41.330;69.282;2023-02-11T01:14:10;36.72;;;16.92;;
78346;SDS011;67622;41.330;69.282;2023-02-11T01:16:41;33.90;;;16.73;;
78346;SDS011;67622;41.330;69.282;2023-02-11T01:19:11;43.63;;;17.60;;
78346;SDS011;67622;41.330;69.282;2023-02-11T01:21:42;34.78;;;16.67;;
78346;SDS011;67622;41.330;69.282;2023-02-11T01:24:12;34.67;;;16.27;;
78346;SDS011;67622;41.330;69.282;2023-02-11T01:26:43;41.05;;;18.73;;
78346;SDS011;67622;41.330;69.282;2023-02-11T01:29:13;45.13;;;18.88;;
78346;SDS011;67622;41.330;69.282;2023-02-11T01:31:43;42.30;;;17.90;;
78346;SDS011;67622;41.330;69.282;2023-02-11T01:34:14;40.30;;;16.40;;
78346;SDS011;67622;41.330;69.282;2023-02-11T01:36:45;35.25;;;16.70;;
78346;SDS011;67622;41.330;69.282;2023-02-11T01:39:15;35.58;;;17.98;;
78346;SDS011;67622;41.330;69.282;2023-02-11T01:41:46;39.95;;;17.20;;
78346;SDS011;67622;41.330;69.282;2023-02-11T01:44:24;35.67;;;16.30;;
78346;SDS011;67622;41.330;69.282;2023-02-11T01:46:55;35.15;;;16.92;;
78346;SDS011;67622;41.330;69.282;2023-02-11T01:49:26;37.85;;;16.95;;
78346;SDS011;67622;41.330;69.282;2023-02-11T01:51:59;36.90;;;16.20;;
78346;SDS011;67622;41.330;69.282;2023-02-11T01:54:35;45.22;;;18.48;;
78346;SDS011;67622;41.330;69.282;2023-02-11T01:57:26;37.53;;;17.23;;
78346;SDS011;67622;41.330;69.282;2023-02-11T02:05:27;47.05;;;20.10;;
78346;SDS011;67622;41.330;69.282;2023-02-11T02:10:30;40.38;;;18.38;;
78346;SDS011;67622;41.330;69.282;2023-02-11T02:13:03;41.47;;;17.67;;
78346;SDS011;67622;41.330;69.282;2023-02-11T02:15:34;40.13;;;18.02;;
78346;SDS011;67622;41.330;69.282;2023-02-11T02:23:48;37.78;;;17.05;;
78346;SDS011;67622;41.330;69.282;2023-02-11T02:37:08;42.05;;;17.25;;
78346;SDS011;67622;41.330;69.282;2023-02-11T02:39:39;39.38;;;18.05;;
78346;SDS011;67622;41.330;69.282;2023-02-11T02:42:09;42.47;;;18.20;;
78346;SDS011;67622;41.330;69.282;2023-02-11T02:44:40;41.05;;;18.33;;
78346;SDS011;67622;41.330;69.282;2023-02-11T02:47:16;40.38;;;16.35;;
78346;SDS011;67622;41.330;69.282;2023-02-11T02:49:47;33.28;;;14.80;;
78346;SDS011;67622;41.330;69.282;2023-02-11T02:52:30;37.75;;;16.85;;
78346;SDS011;67622;41.330;69.282;2023-02-11T02:55:19;37.65;;;15.95;;
78346;SDS011;67622;41.330;69.282;2023-02-11T03:08:39;36.13;;;14.68;;
78346;SDS011;67622;41.330;69.282;2023-02-11T03:11:11;42.67;;;17.10;;
78346;SDS011;67622;41.330;69.282;2023-02-11T03:13:45;43.85;;;16.70;;
78346;SDS011;67622;41.330;69.282;2023-02-11T03:16:18;37.58;;;14.68;;
78346;SDS011;67622;41.330;69.282;2023-02-11T03:19:25;39.92;;;15.32;;
78346;SDS011;67622;41.330;69.282;2023-02-11T03:21:48;38.75;;;14.50;;
78346;SDS011;67622;41.330;69.282;2023-02-11T03:24:20;36.63;;;15.27;;
78346;SDS011;67622;41.330;69.282;2023-02-11T03:26:53;33.90;;;15.13;;
78346;SDS011;67622;41.330;69.282;2023-02-11T03:32:28;33.63;;;14.63;;
78346;SDS011;67622;41.330;69.282;2023-02-11T03:37:44;39.45;;;15.25;;
78346;SDS011;67622;41.330;69.282;2023-02-11T03:40:18;37.08;;;15.50;;
78346;SDS011;67622;41.330;69.282;2023-02-11T03:42:57;30.70;;;14.20;;
78346;SDS011;67622;41.330;69.282;2023-02-11T03:45:28;37.92;;;15.30;;
78346;SDS011;67622;41.330;69.282;2023-02-11T03:48:00;46.65;;;17.73;;
78346;SDS011;67622;41.330;69.282;2023-02-11T03:50:32;32.53;;;15.43;;
78346;SDS011;67622;41.330;69.282;2023-02-11T03:53:05;40.03;;;15.27;;
78346;SDS011;67622;41.330;69.282;2023-02-11T03:55:37;35.80;;;14.55;;
78346;SDS011;67622;41.330;69.282;2023-02-11T03:58:09;45.38;;;16.58;;
78346;SDS011;67622;41.330;69.282;2023-02-11T04:00:40;40.17;;;15.55;;
78346;SDS011;67622;41.330;69.282;2023-02-11T04:03:11;38.20;;;15.48;;
78346;SDS011;67622;41.330;69.282;2023-02-11T04:05:42;32.35;;;13.13;;
78346;SDS011;67622;41.330;69.282;2023-02-11T04:08:12;38.95;;;14.65;;
78346;SDS011;67622;41.330;69.282;2023-02-11T04:10:42;43.35;;;14.13;;
78346;SDS011;67622;41.330;69.282;2023-02-11T04:13:13;40.72;;;13.20;;
78346;SDS011;67622;41.330;69.282;2023-02-11T04:15:44;25.75;;;10.02;;
78346;SDS011;67622;41.330;69.282;2023-02-11T04:18:14;30.67;;;11.13;;
78346;SDS011;67622;41.330;69.282;2023-02-11T04:20:45;26.05;;;10.60;;
78346;SDS011;67622;41.330;69.282;2023-02-11T04:23:15;28.33;;;11.10;;
78346;SDS011;67622;41.330;69.282;2023-02-11T04:25:46;27.67;;;10.95;;
78346;SDS011;67622;41.330;69.282;2023-02-11T04:28:16;23.83;;;9.90;;
78346;SDS011;67622;41.330;69.282;2023-02-11T04:30:48;22.73;;;9.05;;
78346;SDS011;67622;41.330;69.282;2023-02-11T04:33:18;20.92;;;8.82;;
78346;SDS011;67622;41.330;69.282;2023-02-11T04:35:48;20.75;;;9.77;;
78346;SDS011;67622;41.330;69.282;2023-02-11T04:38:20;23.45;;;8.55;;
78346;SDS011;67622;41.330;69.282;2023-02-11T04:40:53;29.23;;;8.98;;
78346;SDS011;67622;41.330;69.282;2023-02-11T04:43:23;17.90;;;8.60;;
78346;SDS011;67622;41.330;69.282;2023-02-11T04:45:57;16.30;;;7.53;;
78346;SDS011;67622;41.330;69.282;2023-02-11T04:48:27;21.25;;;8.18;;
78346;SDS011;67622;41.330;69.282;2023-02-11T04:50:58;23.58;;;9.13;;
78346;SDS011;67622;41.330;69.282;2023-02-11T04:53:28;23.98;;;9.82;;
78346;SDS011;67622;41.330;69.282;2023-02-11T04:55:59;24.08;;;9.90;;
78346;SDS011;67622;41.330;69.282;2023-02-11T04:58:29;21.77;;;10.32;;
78346;SDS011;67622;41.330;69.282;2023-02-11T05:01:09;26.33;;;8.70;;
78346;SDS011;67622;41.330;69.282;2023-02-11T05:03:41;19.42;;;8.02;;
78346;SDS011;67622;41.330;69.282;2023-02-11T05:06:12;18.55;;;7.32;;
78346;SDS011;67622;41.330;69.282;2023-02-11T05:08:42;14.63;;;7.18;;
78346;SDS011;67622;41.330;69.282;2023-02-11T05:11:20;16.15;;;6.88;;
78346;SDS011;67622;41.330;69.282;2023-02-11T05:13:51;14.90;;;7.05;;
78346;SDS011;67622;41.330;69.282;2023-02-11T05:16:21;16.95;;;7.43;;
78346;SDS011;67622;41.330;69.282;2023-02-11T05:18:53;15.00;;;6.00;;
78346;SDS011;67622;41.330;69.282;2023-02-11T05:21:25;18.95;;;7.10;;
78346;SDS011;67622;41.330;69.282;2023-02-11T05:23:56;15.60;;;6.65;;
78346;SDS011;67622;41.330;69.282;2023-02-11T05:26:26;16.70;;;7.55;;
78346;SDS011;67622;41.330;69.282;2023-02-11T05:28:57;13.13;;;6.57;;
78346;SDS011;67622;41.330;69.282;2023-02-11T05:31:27;13.38;;;7.47;;
78346;SDS011;67622;41.330;69.282;2023-02-11T05:33:58;17.17;;;7.30;;
78346;SDS011;67622;41.330;69.282;2023-02-11T05:36:28;13.65;;;6.85;;
78346;SDS011;67622;41.330;69.282;2023-02-11T05:38:58;13.63;;;6.63;;
78346;SDS011;67622;41.330;69.282;2023-02-11T05:41:29;12.70;;;6.22;;
78346;SDS011;67622;41.330;69.282;2023-02-11T05:43:59;13.15;;;6.18;;
78346;SDS011;67622;41.330;69.282;2023-02-11T05:46:30;11.88;;;5.57;;
78346;SDS011;67622;41.330;69.282;2023-02-11T05:49:00;14.07;;;6.80;;
78346;SDS011;67622;41.330;69.282;2023-02-11T05:51:31;13.52;;;6.63;;
78346;SDS011;67622;41.330;69.282;2023-02-11T05:54:01;14.57;;;7.30;;
78346;SDS011;67622;41.330;69.282;2023-02-11T05:56:31;10.18;;;5.93;;
78346;SDS011;67622;41.330;69.282;2023-02-11T05:59:02;14.32;;;6.80;;
78346;SDS011;67622;41.330;69.282;2023-02-11T06:01:32;14.38;;;6.63;;
78346;SDS011;67622;41.330;69.282;2023-02-11T06:04:03;13.18;;;6.25;;
78346;SDS011;67622;41.330;69.282;2023-02-11T06:06:33;16.20;;;6.35;;
78346;SDS011;67622;41.330;69.282;2023-02-11T06:09:04;14.57;;;6.20;;
78346;SDS011;67622;41.330;69.282;2023-02-11T06:11:34;11.50;;;6.30;;
78346;SDS011;67622;41.330;69.282;2023-02-11T06:14:05;15.07;;;6.78;;
78346;SDS011;67622;41.330;69.282;2023-02-11T06:16:35;16.70;;;6.55;;
78346;SDS011;67622;41.330;69.282;2023-02-11T06:19:06;19.38;;;7.18;;
78346;SDS011;67622;41.330;69.282;2023-02-11T06:21:37;15.68;;;8.07;;
78346;SDS011;67622;41.330;69.282;2023-02-11T06:24:07;12.07;;;5.65;;
78346;SDS011;67622;41.330;69.282;2023-02-11T06:26:37;13.45;;;6.68;;
78346;SDS011;67622;41.330;69.282;2023-02-11T06:29:08;14.07;;;6.20;;
78346;SDS011;67622;41.330;69.282;2023-02-11T06:31:38;11.98;;;7.00;;
78346;SDS011;67622;41.330;69.282;2023-02-11T06:34:10;15.73;;;7.50;;
78346;SDS011;67622;41.330;69.282;2023-02-11T06:36:40;12.60;;;6.10;;
78346;SDS011;67622;41.330;69.282;2023-02-11T06:39:11;13.93;;;6.60;;
78346;SDS011;67622;41.330;69.282;2023-02-11T06:41:42;12.65;;;6.95;;
78346;SDS011;67622;41.330;69.282;2023-02-11T06:44:13;15.77;;;7.22;;
78346;SDS011;67622;41.330;69.282;2023-02-11T06:46:43;15.80;;;7.30;;
78346;SDS011;67622;41.330;69.282;2023-02-11T06:49:13;14.10;;;6.57;;
78346;SDS011;67622;41.330;69.282;2023-02-11T06:51:44;13.30;;;7.45;;
78346;SDS011;67622;41.330;69.282;2023-02-11T06:54:16;15.52;;;8.27;;
78346;SDS011;67622;41.330;69.282;2023-02-11T06:56:46;14.30;;;8.15;;
78346;SDS011;67622;41.330;69.282;2023-02-11T06:59:18;21.13;;;7.65;;
78346;SDS011;67622;41.330;69.282;2023-02-11T07:01:49;18.15;;;8.10;;
78346;SDS011;67622;41.330;69.282;2023-02-11T07:04:20;15.57;;;8.07;;
78346;SDS011;67622;41.330;69.282;2023-02-11T07:06:51;16.67;;;8.20;;
78346;SDS011;67622;41.330;69.282;2023-02-11T07:09:22;14.23;;;8.27;;
78346;SDS011;67622;41.330;69.282;2023-02-11T07:11:52;15.80;;;7.45;;
78346;SDS011;67622;41.330;69.282;2023-02-11T07:14:23;13.02;;;7.72;;
78346;SDS011;67622;41.330;69.282;2023-02-11T07:16:53;11.82;;;6.78;;
78346;SDS011;67622;41.330;69.282;2023-02-11T07:19:24;10.35;;;4.68;;
78346;SDS011;67622;41.330;69.282;2023-02-11T07:21:55;11.23;;;6.28;;
78346;SDS011;67622;41.330;69.282;2023-02-11T07:24:25;12.68;;;6.05;;
78346;SDS011;67622;41.330;69.282;2023-02-11T07:26:56;14.55;;;6.75;;
78346;SDS011;67622;41.330;69.282;2023-02-11T07:29:26;15.65;;;6.70;;
78346;SDS011;67622;41.330;69.282;2023-02-11T07:31:57;12.60;;;6.90;;
78346;SDS011;67622;41.330;69.282;2023-02-11T07:34:27;15.75;;;6.45;;
78346;SDS011;67622;41.330;69.282;2023-02-11T07:36:58;16.98;;;6.13;;
78346;SDS011;67622;41.330;69.282;2023-02-11T07:39:28;14.70;;;7.32;;
78346;SDS011;67622;41.330;69.282;2023-02-11T07:41:59;15.38;;;7.07;;
78346;SDS011;67622;41.330;69.282;2023-02-11T07:44:29;11.82;;;7.20;;
78346;SDS011;67622;41.330;69.282;2023-02-11T07:47:02;18.15;;;7.45;;
78346;SDS011;67622;41.330;69.282;2023-02-11T07:49:32;14.80;;;7.45;;
78346;SDS011;67622;41.330;69.282;2023-02-11T07:52:03;16.77;;;8.05;;
78346;SDS011;67622;41.330;69.282;2023-02-11T07:54:34;19.17;;;7.75;;
78346;SDS011;67622;41.330;69.282;2023-02-11T07:57:04;16.42;;;7.78;;
78346;SDS011;67622;41.330;69.282;2023-02-11T07:59:35;13.18;;;7.45;;
78346;SDS011;67622;41.330;69.282;2023-02-11T08:02:07;14.65;;;7.22;;
78346;SDS011;67622;41.330;69.282;2023-02-11T08:04:38;17.38;;;8.55;;
78346;SDS011;67622;41.330;69.282;2023-02-11T08:07:08;13.52;;;6.47;;
78346;SDS011;67622;41.330;69.282;2023-02-11T08:09:39;16.30;;;7.93;;
78346;SDS011;67622;41.330;69.282;2023-02-11T08:12:10;12.50;;;7.35;;
78346;SDS011;67622;41.330;69.282;2023-02-11T08:14:40;12.45;;;7.60;;
78346;SDS011;67622;41.330;69.282;2023-02-11T08:17:10;14.80;;;6.97;;
78346;SDS011;67622;41.330;69.282;2023-02-11T08:19:41;11.63;;;6.57;;
78346;SDS011;67622;41.330;69.282;2023-02-11T08:22:12;15.13;;;8.25;;
78346;SDS011;67622;41.330;69.282;2023-02-11T08:24:42;15.00;;;7.93;;
78346;SDS011;67622;41.330;69.282;2023-02-11T08:27:13;19.00;;;8.15;;
78346;SDS011;67622;41.330;69.282;2023-02-11T08:29:43;14.15;;;8.05;;
78346;SDS011;67622;41.330;69.282;2023-02-11T08:32:14;14.73;;;8.10;;
78346;SDS011;67622;41.330;69.282;2023-02-11T08:34:44;13.63;;;7.95;;
78346;SDS011;67622;41.330;69.282;2023-02-11T08:37:15;12.73;;;7.82;;
78346;SDS011;67622;41.330;69.282;2023-02-11T08:39:46;14.93;;;6.93;;
78346;SDS011;67622;41.330;69.282;2023-02-11T08:42:17;13.10;;;7.00;;
78346;SDS011;67622;41.330;69.282;2023-02-11T08:44:47;13.40;;;8.02;;
78346;SDS011;67622;41.330;69.282;2023-02-11T08:47:18;15.88;;;8.15;;
78346;SDS011;67622;41.330;69.282;2023-02-11T08:49:49;16.00;;;8.45;;
78346;SDS011;67622;41.330;69.282;2023-02-11T08:52:19;14.52;;;8.13;;
78346;SDS011;67622;41.330;69.282;2023-02-11T08:54:49;13.63;;;7.68;;
78346;SDS011;67622;41.330;69.282;2023-02-11T08:57:20;15.68;;;7.95;;
78346;SDS011;67622;41.330;69.282;2023-02-11T08:59:50;15.88;;;8.60;;
78346;SDS011;67622;41.330;69.282;2023-02-11T09:02:21;15.07;;;7.25;;
78346;SDS011;67622;41.330;69.282;2023-02-11T09:04:51;16.40;;;8.25;;
78346;SDS011;67622;41.330;69.282;2023-02-11T09:07:22;19.08;;;9.65;;
78346;SDS011;67622;41.330;69.282;2023-02-11T09:09:52;14.13;;;8.02;;
78346;SDS011;67622;41.330;69.282;2023-02-11T09:12:23;13.10;;;7.57;;
78346;SDS011;67622;41.330;69.282;2023-02-11T09:14:54;17.23;;;8.57;;
78346;SDS011;67622;41.330;69.282;2023-02-11T09:17:24;14.00;;;8.30;;
78346;SDS011;67622;41.330;69.282;2023-02-11T09:19:55;19.25;;;8.45;;
78346;SDS011;67622;41.330;69.282;2023-02-11T09:22:25;16.35;;;8.95;;
78346;SDS011;67622;41.330;69.282;2023-02-11T09:24:56;12.60;;;7.32;;
78346;SDS011;67622;41.330;69.282;2023-02-11T09:27:26;13.77;;;8.95;;
78346;SDS011;67622;41.330;69.282;2023-02-11T09:29:57;16.10;;;8.13;;
78346;SDS011;67622;41.330;69.282;2023-02-11T09:32:27;15.85;;;7.93;;
78346;SDS011;67622;41.330;69.282;2023-02-11T09:34:58;17.10;;;7.88;;
78346;SDS011;67622;41.330;69.282;2023-02-11T09:37:29;18.08;;;8.05;;
78346;SDS011;67622;41.330;69.282;2023-02-11T09:39:59;15.20;;;7.82;;
78346;SDS011;67622;41.330;69.282;2023-02-11T09:42:36;15.25;;;7.57;;
78346;SDS011;67622;41.330;69.282;2023-02-11T09:45:18;15.77;;;8.15;;
78346;SDS011;67622;41.330;69.282;2023-02-11T09:50:30;19.67;;;8.13;;
78346;SDS011;67622;41.330;69.282;2023-02-11T09:53:24;19.52;;;8.23;;
78346;SDS011;67622;41.330;69.282;2023-02-11T09:55:59;13.93;;;6.97;;
78346;SDS011;67622;41.330;69.282;2023-02-11T09:58:34;11.35;;;6.93;;
78346;SDS011;67622;41.330;69.282;2023-02-11T10:06:47;13.20;;;7.40;;
78346;SDS011;67622;41.330;69.282;2023-02-11T10:12:02;13.88;;;6.97;;
78346;SDS011;67622;41.330;69.282;2023-02-11T10:22:45;16.23;;;7.43;;
78346;SDS011;67622;41.330;69.282;2023-02-11T10:25:26;16.25;;;7.40;;
78346;SDS011;67622;41.330;69.282;2023-02-11T10:27:57;14.82;;;7.63;;
78346;SDS011;67622;41.330;69.282;2023-02-11T10:30:32;13.77;;;7.30;;
78346;SDS011;67622;41.330;69.282;2023-02-11T10:35:35;13.30;;;7.07;;
78346;SDS011;67622;41.330;69.282;2023-02-11T10:38:07;13.57;;;6.90;;
78346;SDS011;67622;41.330;69.282;2023-02-11T10:40:38;11.30;;;6.97;;
78346;SDS011;67622;41.330;69.282;2023-02-11T10:43:12;14.23;;;7.53;;
78346;SDS011;67622;41.330;69.282;2023-02-11T10:45:44;14.05;;;7.43;;
78346;SDS011;67622;41.330;69.282;2023-02-11T10:48:35;11.73;;;6.82;;
78346;SDS011;67622;41.330;69.282;2023-02-11T10:51:06;16.42;;;7.85;;
78346;SDS011;67622;41.330;69.282;2023-02-11T10:53:38;16.02;;;7.75;;
78346;SDS011;67622;41.330;69.282;2023-02-11T10:56:13;14.55;;;7.70;;
78346;SDS011;67622;41.330;69.282;2023-02-11T10:58:59;17.02;;;7.85;;
78346;SDS011;67622;41.330;69.282;2023-02-11T11:04:00;16.83;;;7.60;;
78346;SDS011;67622;41.330;69.282;2023-02-11T11:06:31;13.10;;;7.25;;
78346;SDS011;67622;41.330;69.282;2023-02-11T11:09:02;14.85;;;8.13;;
78346;SDS011;67622;41.330;69.282;2023-02-11T11:11:34;14.00;;;7.72;;
78346;SDS011;67622;41.330;69.282;2023-02-11T11:14:19;14.20;;;7.50;;
78346;SDS011;67622;41.330;69.282;2023-02-11T11:16:55;13.25;;;7.07;;
78346;SDS011;67622;41.330;69.282;2023-02-11T11:19:25;14.55;;;7.70;;
78346;SDS011;67622;41.330;69.282;2023-02-11T11:21:56;11.10;;;6.70;;
78346;SDS011;67622;41.330;69.282;2023-02-11T11:26:59;15.93;;;7.40;;
78346;SDS011;67622;41.330;69.282;2023-02-11T11:29:49;13.23;;;7.28;;
78346;SDS011;67622;41.330;69.282;2023-02-11T11:32:22;13.63;;;7.68;;
78346;SDS011;67622;41.330;69.282;2023-02-11T11:34:53;15.25;;;7.80;;
78346;SDS011;67622;41.330;69.282;2023-02-11T11:37:26;13.32;;;7.57;;
78346;SDS011;67622;41.330;69.282;2023-02-11T11:42:34;18.45;;;8.00;;
78346;SDS011;67622;41.330;69.282;2023-02-11T11:53:26;18.75;;;8.48;;
78346;SDS011;67622;41.330;69.282;2023-02-11T11:56:12;15.32;;;8.05;;
78346;SDS011;67622;41.330;69.282;2023-02-11T11:58:43;15.85;;;7.32;;
78346;SDS011;67622;41.330;69.282;2023-02-11T12:01:17;13.85;;;7.05;;
78346;SDS011;67622;41.330;69.282;2023-02-11T12:06:41;15.60;;;8.07;;
78346;SDS011;67622;41.330;69.282;2023-02-11T12:12:22;14.02;;;7.32;;
78346;SDS011;67622;41.330;69.282;2023-02-11T12:25:23;17.33;;;8.88;;
78346;SDS011;67622;41.330;69.282;2023-02-11T12:34:17;16.60;;;9.18;;
78346;SDS011;67622;41.330;69.282;2023-02-11T12:36:59;14.50;;;7.50;;
78346;SDS011;67622;41.330;69.282;2023-02-11T12:47:51;18.52;;;9.70;;
78346;SDS011;67622;41.330;69.282;2023-02-11T12:55:43;18.45;;;8.98;;
78346;SDS011;67622;41.330;69.282;2023-02-11T12:58:17;16.38;;;9.02;;
78346;SDS011;67622;41.330;69.282;2023-02-11T13:01:02;18.20;;;9.38;;
78346;SDS011;67622;41.330;69.282;2023-02-11T13:06:10;18.38;;;9.38;;
78346;SDS011;67622;41.330;69.282;2023-02-11T13:11:15;17.60;;;9.50;;
78346;SDS011;67622;41.330;69.282;2023-02-11T13:16:42;18.23;;;9.48;;
78346;SDS011;67622;41.330;69.282;2023-02-11T13:37:59;20.67;;;10.23;;
78346;SDS011;67622;41.330;69.282;2023-02-11T13:40:36;20.60;;;10.10;;
78346;SDS011;67622;41.330;69.282;2023-02-11T13:43:30;19.83;;;10.18;;
78346;SDS011;67622;41.330;69.282;2023-02-11T13:46:00;24.88;;;10.52;;
78346;SDS011;67622;41.330;69.282;2023-02-11T13:48:37;22.77;;;11.90;;
78346;SDS011;67622;41.330;69.282;2023-02-11T13:51:08;19.83;;;10.10;;
78346;SDS011;67622;41.330;69.282;2023-02-11T13:54:01;24.50;;;11.13;;
78346;SDS011;67622;41.330;69.282;2023-02-11T13:56:33;21.45;;;10.75;;
78346;SDS011;67622;41.330;69.282;2023-02-11T14:11:06;25.13;;;10.82;;
78346;SDS011;67622;41.330;69.282;2023-02-11T14:16:18;17.98;;;9.68;;
78346;SDS011;67622;41.330;69.282;2023-02-11T14:26:53;26.30;;;10.52;;
78346;SDS011;67622;41.330;69.282;2023-02-11T14:29:42;20.92;;;11.05;;
78346;SDS011;67622;41.330;69.282;2023-02-11T14:40:09;24.55;;;11.32;;
78346;SDS011;67622;41.330;69.282;2023-02-11T14:42:43;31.98;;;12.27;;
78346;SDS011;67622;41.330;69.282;2023-02-11T14:45:17;26.73;;;12.95;;
78346;SDS011;67622;41.330;69.282;2023-02-11T14:50:27;25.65;;;12.15;;
78346;SDS011;67622;41.330;69.282;2023-02-11T14:52:58;29.40;;;12.70;;
78346;SDS011;67622;41.330;69.282;2023-02-11T14:55:31;24.35;;;11.25;;
78346;SDS011;67622;41.330;69.282;2023-02-11T15:00:35;23.17;;;12.18;;
78346;SDS011;67622;41.330;69.282;2023-02-11T15:03:22;29.10;;;13.00;;
78346;SDS011;67622;41.330;69.282;2023-02-11T15:05:57;24.65;;;12.65;;
78346;SDS011;67622;41.330;69.282;2023-02-11T15:08:28;20.88;;;11.82;;
78346;SDS011;67622;41.330;69.282;2023-02-11T15:11:01;25.15;;;12.02;;
78346;SDS011;67622;41.330;69.282;2023-02-11T15:13:32;30.60;;;12.80;;
78346;SDS011;67622;41.330;69.282;2023-02-11T15:16:04;22.88;;;11.20;;
78346;SDS011;67622;41.330;69.282;2023-02-11T15:18:39;33.60;;;12.00;;
78346;SDS011;67622;41.330;69.282;2023-02-11T15:21:11;28.25;;;13.68;;
78346;SDS011;67622;41.330;69.282;2023-02-11T15:23:41;25.38;;;12.05;;
78346;SDS011;67622;41.330;69.282;2023-02-11T15:26:24;27.38;;;13.45;;
78346;SDS011;67622;41.330;69.282;2023-02-11T15:28:54;28.65;;;12.57;;
78346;SDS011;67622;41.330;69.282;2023-02-11T15:31:26;26.67;;;13.27;;
78346;SDS011;67622;41.330;69.282;2023-02-11T15:33:56;31.95;;;13.18;;
78346;SDS011;67622;41.330;69.282;2023-02-11T15:36:36;28.48;;;13.82;;
78346;SDS011;67622;41.330;69.282;2023-02-11T15:42:14;29.77;;;13.98;;
78346;SDS011;67622;41.330;69.282;2023-02-11T15:44:45;25.30;;;12.82;;
78346;SDS011;67622;41.330;69.282;2023-02-11T15:47:18;39.97;;;13.15;;
78346;SDS011;67622;41.330;69.282;2023-02-11T15:49:49;36.10;;;14.13;;
78346;SDS011;67622;41.330;69.282;2023-02-11T15:52:21;33.40;;;14.82;;
78346;SDS011;67622;41.330;69.282;2023-02-11T15:54:53;33.58;;;14.63;;
78346;SDS011;67622;41.330;69.282;2023-02-11T15:57:25;27.10;;;13.88;;
78346;SDS011;67622;41.330;69.282;2023-02-11T15:59:55;29.83;;;13.43;;
78346;SDS011;67622;41.330;69.282;2023-02-11T16:02:32;32.88;;;14.25;;
78346;SDS011;67622;41.330;69.282;2023-02-11T16:05:05;35.22;;;13.95;;
78346;SDS011;67622;41.330;69.282;2023-02-11T16:07:43;26.60;;;12.80;;
78346;SDS011;67622;41.330;69.282;2023-02-11T16:10:15;30.10;;;13.93;;
78346;SDS011;67622;41.330;69.282;2023-02-11T16:12:50;34.80;;;14.50;;
78346;SDS011;67622;41.330;69.282;2023-02-11T16:15:40;35.05;;;14.45;;
78346;SDS011;67622;41.330;69.282;2023-02-11T16:18:13;36.70;;;16.63;;
78346;SDS011;67622;41.330;69.282;2023-02-11T16:20:45;34.13;;;14.00;;
78346;SDS011;67622;41.330;69.282;2023-02-11T16:23:24;37.03;;;14.38;;
78346;SDS011;67622;41.330;69.282;2023-02-11T16:26:40;33.35;;;15.02;;
78346;SDS011;67622;41.330;69.282;2023-02-11T16:28:47;30.95;;;14.38;;
78346;SDS011;67622;41.330;69.282;2023-02-11T16:31:18;34.05;;;14.60;;
78346;SDS011;67622;41.330;69.282;2023-02-11T16:33:48;40.08;;;15.98;;
78346;SDS011;67622;41.330;69.282;2023-02-11T16:36:19;28.95;;;14.57;;
78346;SDS011;67622;41.330;69.282;2023-02-11T16:38:49;33.28;;;15.60;;
78346;SDS011;67622;41.330;69.282;2023-02-11T16:41:20;30.55;;;14.52;;
78346;SDS011;67622;41.330;69.282;2023-02-11T16:43:50;34.40;;;16.42;;
78346;SDS011;67622;41.330;69.282;2023-02-11T16:46:21;37.30;;;15.65;;
78346;SDS011;67622;41.330;69.282;2023-02-11T16:48:52;39.17;;;15.93;;
78346;SDS011;67622;41.330;69.282;2023-02-11T16:51:23;32.78;;;15.93;;
78346;SDS011;67622;41.330;69.282;2023-02-11T16:53:54;33.78;;;16.38;;
78346;SDS011;67622;41.330;69.282;2023-02-11T16:56:24;34.97;;;16.52;;
78346;SDS011;67622;41.330;69.282;2023-02-11T16:58:55;34.08;;;15.68;;
78346;SDS011;67622;41.330;69.282;2023-02-11T17:01:25;28.80;;;13.63;;
78346;SDS011;67622;41.330;69.282;2023-02-11T17:03:56;33.28;;;14.98;;
78346;SDS011;67622;41.330;69.282;2023-02-11T17:06:27;28.45;;;15.48;;
78346;SDS011;67622;41.330;69.282;2023-02-11T17:08:57;32.40;;;15.55;;
78346;SDS011;67622;41.330;69.282;2023-02-11T17:11:28;30.55;;;15.73;;
78346;SDS011;67622;41.330;69.282;2023-02-11T17:13:58;33.33;;;15.32;;
78346;SDS011;67622;41.330;69.282;2023-02-11T17:16:29;37.17;;;16.88;;
78346;SDS011;67622;41.330;69.282;2023-02-11T17:18:59;36.20;;;16.83;;
78346;SDS011;67622;41.330;69.282;2023-02-11T17:21:30;31.67;;;15.85;;
78346;SDS011;67622;41.330;69.282;2023-02-11T17:24:01;33.90;;;16.92;;
78346;SDS011;67622;41.330;69.282;2023-02-11T17:26:31;30.55;;;15.30;;
78346;SDS011;67622;41.330;69.282;2023-02-11T17:29:05;32.63;;;15.93;;
78346;SDS011;67622;41.330;69.282;2023-02-11T17:31:36;30.05;;;14.68;;
78346;SDS011;67622;41.330;69.282;2023-02-11T17:34:07;40.17;;;17.80;;
78346;SDS011;67622;41.330;69.282;2023-02-11T17:36:38;30.50;;;15.90;;
78346;SDS011;67622;41.330;69.282;2023-02-11T17:39:10;33.75;;;15.60;;
78346;SDS011;67622;41.330;69.282;2023-02-11T17:41:41;32.05;;;16.77;;
78346;SDS011;67622;41.330;69.282;2023-02-11T17:44:11;29.48;;;14.93;;
78346;SDS011;67622;41.330;69.282;2023-02-11T17:46:43;32.13;;;17.02;;